Time;durP1;ratioP1;P1;durP2;ratioP2;P2;SDS_P1;SDS_P2;PMS_P1;PMS_P2;Temp;Humidity;BMP_temperature;BMP_pressure;BME280_temperature;BME280_humidity;BME280_pressure;Samples;Min_cycle;Max_cycle;Signal;HPM_P1;HPM_P2
2021/10/07 00:02:08;;;;;;;4.17;1.62;;;;;;;13.93;32.31;102303.50;1768212;80;20921;-73
2021/10/07 00:04:35;;;;;;;4.28;1.87;;;;;;;13.86;32.35;102299.38;1764047;80;21143;-67
2021/10/07 00:07:02;;;;;;;3.60;1.62;;;;;;;13.88;32.34;102300.03;1747078;80;20970;-67
2021/10/07 00:09:30;;;;;;;3.67;1.60;;;;;;;13.87;32.32;102299.71;1765979;80;21110;-68
2021/10/07 00:11:58;;;;;;;3.83;1.30;;;;;;;13.78;32.50;102299.80;1755416;80;20925;-71
2021/10/07 00:14:26;;;;;;;5.67;1.45;;;;;;;13.74;32.50;102299.28;1760247;80;21481;-67
2021/10/07 00:16:52;;;;;;;3.40;1.75;;;;;;;13.78;32.49;102298.48;1769453;80;21825;-68
2021/10/07 00:19:19;;;;;;;4.33;1.82;;;;;;;13.88;32.33;102302.66;1769560;80;21058;-67
2021/10/07 00:21:45;;;;;;;4.40;1.60;;;;;;;13.88;32.31;102298.72;1763525;80;21442;-74
2021/10/07 00:24:12;;;;;;;6.37;1.70;;;;;;;13.85;32.34;102300.83;1757527;80;21038;-74
2021/10/07 00:26:42;;;;;;;5.45;1.57;;;;;;;13.90;32.33;102293.81;1763927;80;21540;-67
2021/10/07 00:32:05;;;;;;;2.80;1.30;;;;;;;13.81;32.44;102295.56;1770155;80;21273;-67
2021/10/07 00:37:03;;;;;;;5.35;1.30;;;;;;;13.74;32.65;102291.42;1769266;80;20995;-67
2021/10/07 00:39:27;;;;;;;5.30;1.40;;;;;;;13.63;32.88;102299.53;1754111;80;20844;-75
2021/10/07 00:41:54;;;;;;;5.03;1.60;;;;;;;13.54;32.93;102307.02;1766898;80;21161;-67
2021/10/07 00:44:21;;;;;;;4.97;1.30;;;;;;;13.58;32.95;102300.48;1759907;80;21057;-66
2021/10/07 00:46:59;;;;;;;5.35;1.50;;;;;;;13.37;33.16;102304.27;1770531;80;21134;-66
2021/10/07 00:49:27;;;;;;;3.95;1.47;;;;;;;12.99;33.70;102300.09;1764612;80;21489;-74
2021/10/07 00:51:54;;;;;;;5.12;1.50;;;;;;;12.98;33.71;102296.33;1761204;80;20932;-66
2021/10/07 00:54:25;;;;;;;3.47;1.32;;;;;;;12.89;33.91;102300.18;1749742;80;21127;-66
2021/10/07 00:56:53;;;;;;;5.85;2.35;;;;;;;12.89;33.97;102294.95;1771405;80;22110;-66
2021/10/07 00:59:19;;;;;;;3.02;1.30;;;;;;;12.81;34.11;102296.17;1770159;80;20996;-74
2021/10/07 01:01:46;;;;;;;3.50;1.45;;;;;;;12.75;34.22;102294.63;1769998;80;20964;-67
2021/10/07 01:04:14;;;;;;;3.05;1.30;;;;;;;12.62;34.48;102297.61;1770401;79;20936;-68
2021/10/07 01:06:42;;;;;;;4.47;1.55;;;;;;;12.57;34.52;102295.41;1771107;80;21148;-67
2021/10/07 01:09:09;;;;;;;4.37;1.50;;;;;;;12.60;34.63;102296.42;1770412;80;20943;-67
2021/10/07 01:11:36;;;;;;;3.52;1.35;;;;;;;12.73;34.41;102291.32;1758946;80;20992;-70
2021/10/07 01:14:03;;;;;;;3.92;1.45;;;;;;;12.61;34.64;102298.55;1760038;80;22079;-67
2021/10/07 01:16:30;;;;;;;5.45;1.77;;;;;;;12.62;34.63;102298.91;1769803;80;21039;-66
2021/10/07 01:18:56;;;;;;;3.77;1.70;;;;;;;12.53;34.81;102302.39;1761868;80;21157;-66
2021/10/07 01:21:25;;;;;;;3.35;1.40;;;;;;;12.42;34.98;102300.78;1767067;80;20987;-73
2021/10/07 01:23:51;;;;;;;3.40;1.62;;;;;;;12.49;34.86;102301.85;1746905;79;20915;-70
2021/10/07 01:26:20;;;;;;;4.40;1.72;;;;;;;12.40;34.99;102304.86;1767936;80;21015;-74
2021/10/07 01:28:50;;;;;;;4.95;1.67;;;;;;;12.38;35.02;102302.86;1752808;80;20888;-67
2021/10/07 01:31:17;;;;;;;4.30;1.55;;;;;;;12.36;35.01;102300.89;1770359;80;21203;-75
2021/10/07 01:33:45;;;;;;;3.70;1.72;;;;;;;12.34;35.16;102304.13;1769290;80;20913;-68
2021/10/07 01:36:11;;;;;;;5.15;1.70;;;;;;;12.25;35.24;102307.61;1770990;80;21565;-74
2021/10/07 01:38:38;;;;;;;4.53;1.80;;;;;;;12.47;35.05;102310.83;1764740;80;21060;-68
2021/10/07 01:41:06;;;;;;;4.37;2.00;;;;;;;12.49;35.00;102312.80;1747727;80;20864;-68
2021/10/07 01:43:34;;;;;;;5.08;2.15;;;;;;;12.52;34.92;102315.95;1767809;80;21240;-68
2021/10/07 01:46:01;;;;;;;5.53;2.52;;;;;;;12.48;35.03;102320.31;1768593;80;20995;-75
2021/10/07 01:48:27;;;;;;;5.75;2.12;;;;;;;12.54;34.96;102321.03;1770025;80;21011;-67
2021/10/07 01:50:55;;;;;;;7.28;2.62;;;;;;;12.36;35.16;102315.77;1722696;80;20964;-68
2021/10/07 01:53:22;;;;;;;7.67;2.45;;;;;;;12.33;35.31;102329.94;1755285;80;21497;-68
2021/10/07 01:55:48;;;;;;;4.50;2.08;;;;;;;12.35;35.32;102316.25;1765409;80;22167;-68
2021/10/07 01:58:14;;;;;;;7.22;2.42;;;;;;;12.25;35.49;102319.38;1768843;80;20905;-68
2021/10/07 02:00:41;;;;;;;4.80;2.15;;;;;;;12.15;35.64;102312.05;1771081;80;21583;-68
2021/10/07 02:03:08;;;;;;;4.85;1.87;;;;;;;11.65;36.19;102313.09;1770362;80;21011;-75
2021/10/07 02:05:34;;;;;;;5.85;2.40;;;;;;;11.72;36.31;102306.02;1745576;80;21540;-67
2021/10/07 02:08:01;;;;;;;5.75;2.20;;;;;;;11.94;36.20;102304.42;1735482;81;21165;-68
2021/10/07 02:10:28;;;;;;;6.37;2.00;;;;;;;11.95;36.14;102307.84;1701524;81;21056;-68
2021/10/07 02:12:55;;;;;;;3.77;1.92;;;;;;;12.00;36.17;102310.36;1731882;81;20944;-68
2021/10/07 02:15:23;;;;;;;6.47;1.70;;;;;;;12.02;36.15;102306.32;1736360;81;21592;-68
2021/10/07 02:17:49;;;;;;;6.22;1.82;;;;;;;12.01;36.15;102304.65;1767390;80;20984;-68
2021/10/07 02:20:16;;;;;;;5.22;1.95;;;;;;;11.92;36.30;102310.25;1772540;80;21146;-68
2021/10/07 02:22:42;;;;;;;3.77;1.70;;;;;;;11.89;36.37;102307.46;1774420;80;21118;-68
2021/10/07 02:25:10;;;;;;;5.05;1.82;;;;;;;11.96;36.26;102302.95;1763028;80;20924;-75
2021/10/07 02:27:36;;;;;;;4.30;1.62;;;;;;;11.84;36.40;102308.83;1751456;80;21071;-68
2021/10/07 02:30:11;;;;;;;3.85;1.87;;;;;;;11.89;36.40;102315.30;1761735;80;20992;-74
2021/10/07 02:32:38;;;;;;;5.78;2.35;;;;;;;11.92;36.21;102314.99;1761603;79;22219;-67
2021/10/07 02:35:06;;;;;;;5.03;1.72;;;;;;;11.82;36.41;102323.78;1762698;80;21422;-68
2021/10/07 02:37:33;;;;;;;6.40;1.87;;;;;;;11.83;36.45;102321.53;1758828;80;22379;-66
2021/10/07 02:40:00;;;;;;;5.50;1.92;;;;;;;11.85;36.36;102324.36;1749728;80;21124;-72
2021/10/07 02:42:26;;;;;;;4.42;2.00;;;;;;;11.78;36.44;102318.50;1766970;80;20999;-67
2021/10/07 02:44:53;;;;;;;4.08;1.85;;;;;;;11.74;36.58;102321.87;1767093;80;21169;-74
2021/10/07 02:47:19;;;;;;;5.20;1.80;;;;;;;11.59;36.87;102328.48;1773402;80;20984;-67
2021/10/07 02:49:46;;;;;;;4.60;1.82;;;;;;;11.82;36.51;102323.78;1775046;80;21016;-67
2021/10/07 02:52:13;;;;;;;5.87;1.90;;;;;;;11.81;36.46;102330.80;1774141;80;20983;-68
2021/10/07 02:54:39;;;;;;;5.58;2.12;;;;;;;11.78;36.54;102336.33;1755400;80;20984;-67
2021/10/07 02:57:07;;;;;;;5.90;1.77;;;;;;;11.77;36.62;102332.05;1768832;80;21575;-66
2021/10/07 02:59:34;;;;;;;5.67;1.92;;;;;;;11.81;36.59;102337.33;1784254;78;21091;-66
2021/10/07 03:02:01;;;;;;;5.62;2.50;;;;;;;11.74;36.81;102342.77;1801672;78;21089;-68
2021/10/07 03:04:28;;;;;;;6.10;1.90;;;;;;;11.68;36.83;102346.78;1813146;78;20895;-69
2021/10/07 03:06:55;;;;;;;8.00;2.30;;;;;;;11.84;36.67;102348.03;1798354;78;21074;-72
2021/10/07 03:09:22;;;;;;;4.58;2.02;;;;;;;11.91;36.54;102343.41;1810620;78;21162;-67
2021/10/07 03:11:50;;;;;;;6.83;2.65;;;;;;;11.99;36.37;102351.03;1808995;78;21033;-67
2021/10/07 03:14:16;;;;;;;4.62;2.00;;;;;;;11.91;36.53;102352.55;1816231;78;21753;-68
2021/10/07 03:16:43;;;;;;;5.45;2.10;;;;;;;11.87;36.60;102345.96;1806290;78;21046;-67
2021/10/07 03:19:09;;;;;;;4.45;2.33;;;;;;;11.84;36.64;102352.77;1759493;80;21069;-66
2021/10/07 03:21:38;;;;;;;6.28;2.37;;;;;;;11.78;36.69;102345.48;1752489;80;21228;-67
2021/10/07 03:24:05;;;;;;;6.25;2.50;;;;;;;11.71;36.86;102349.61;1746193;81;21021;-68
2021/10/07 03:26:31;;;;;;;6.25;2.72;;;;;;;11.84;36.67;102350.64;1815461;78;21481;-67
2021/10/07 03:28:58;;;;;;;7.03;2.52;;;;;;;11.71;36.82;102345.69;1756344;81;20970;-73
2021/10/07 03:31:26;;;;;;;4.85;2.33;;;;;;;11.76;36.84;102347.88;1756525;81;21120;-67
2021/10/07 03:33:52;;;;;;;7.15;2.55;;;;;;;11.85;36.67;102348.36;1761690;79;21855;-67
2021/10/07 03:36:19;;;;;;;5.92;3.00;;;;;;;11.97;36.50;102351.64;1773822;79;20916;-67
2021/10/07 03:38:46;;;;;;;4.40;2.58;;;;;;;12.00;36.42;102350.88;1788608;79;21054;-75
2021/10/07 03:41:12;;;;;;;5.72;2.60;;;;;;;11.96;36.50;102348.69;1744090;80;21546;-67
2021/10/07 03:43:39;;;;;;;5.78;2.50;;;;;;;11.93;36.47;102344.56;1818051;78;21083;-67
2021/10/07 03:46:06;;;;;;;5.08;2.60;;;;;;;11.90;36.53;102353.53;1801510;78;21189;-67
2021/10/07 03:48:32;;;;;;;5.97;2.62;;;;;;;11.89;36.56;102351.89;1806973;78;20956;-67
2021/10/07 03:50:58;;;;;;;4.78;2.22;;;;;;;11.84;36.71;102346.72;1809266;78;20935;-68
2021/10/07 03:53:27;;;;;;;4.80;2.30;;;;;;;12.06;36.46;102353.43;1805965;78;21568;-68
2021/10/07 03:55:55;;;;;;;5.62;2.58;;;;;;;12.43;36.16;102351.33;1816776;78;21085;-69
2021/10/07 03:58:21;;;;;;;8.53;2.70;;;;;;;12.72;35.72;102353.30;1796652;78;21184;-68
2021/10/07 04:00:48;;;;;;;7.00;2.83;;;;;;;12.96;35.44;102358.02;1820355;78;20966;-68
2021/10/07 04:03:14;;;;;;;9.00;3.02;;;;;;;13.29;34.98;102357.87;1817392;78;21033;-69
2021/10/07 04:05:41;;;;;;;6.30;2.77;;;;;;;13.65;34.62;102356.56;1800897;78;21547;-70
2021/10/07 04:08:07;;;;;;;6.40;3.87;;;;;;;13.98;34.09;102355.47;1804460;78;21022;-68
2021/10/07 04:10:34;;;;;;;6.70;3.58;;;;;;;14.35;33.57;102355.20;1807717;78;21096;-69
2021/10/07 04:13:00;;;;;;;6.95;3.40;;;;;;;14.56;33.27;102352.22;1811640;78;20926;-72
2021/10/07 04:15:27;;;;;;;10.88;3.30;;;;;;;14.72;32.72;102352.77;1805935;78;21089;-72
2021/10/07 04:17:56;;;;;;;8.08;3.05;;;;;;;14.94;32.30;102351.36;1802437;78;20997;-71
2021/10/07 04:20:22;;;;;;;8.90;3.33;;;;;;;15.05;32.28;102356.31;1808563;78;21039;-71
2021/10/07 04:22:49;;;;;;;5.87;3.05;;;;;;;15.43;31.79;102354.07;1807256;78;21027;-71
2021/10/07 04:25:15;;;;;;;5.80;3.17;;;;;;;15.75;31.34;102355.39;1803711;78;21578;-75
2021/10/07 04:27:42;;;;;;;8.38;3.02;;;;;;;15.99;30.75;102351.11;1820320;78;21395;-70
2021/10/07 04:30:10;;;;;;;6.15;3.72;;;;;;;16.07;30.57;102353.72;1808882;78;21744;-71
2021/10/07 04:32:38;;;;;;;6.80;3.67;;;;;;;16.19;30.41;102355.00;1818732;78;20979;-71
2021/10/07 04:35:06;;;;;;;7.10;3.60;;;;;;;16.16;30.24;102364.53;1819046;78;21188;-72
2021/10/07 04:37:34;;;;;;;7.95;3.72;;;;;;;15.90;30.41;102362.61;1807652;78;21040;-67
2021/10/07 04:40:00;;;;;;;8.83;4.40;;;;;;;15.70;30.73;102360.83;1808112;78;20995;-68
2021/10/07 04:42:27;;;;;;;8.00;3.55;;;;;;;15.65;30.81;102366.59;1820233;78;20987;-68
2021/10/07 04:44:54;;;;;;;13.90;3.87;;;;;;;15.51;31.07;102376.41;1800725;78;20998;-68
2021/10/07 04:47:20;;;;;;;8.08;3.72;;;;;;;15.37;31.20;102367.35;1812825;78;21135;-68
2021/10/07 04:49:47;;;;;;;8.15;3.33;;;;;;;15.13;31.58;102373.89;1817244;78;22513;-68
2021/10/07 04:52:14;;;;;;;17.17;4.25;;;;;;;15.03;31.77;102373.53;1818593;78;21516;-67
2021/10/07 04:54:40;;;;;;;8.30;3.92;;;;;;;14.47;32.65;102385.92;1818530;78;21078;-68
2021/10/07 04:57:07;;;;;;;8.23;4.17;;;;;;;14.49;32.63;102386.59;1814286;78;21416;-77
2021/10/07 04:59:33;;;;;;;7.67;3.27;;;;;;;14.59;32.50;102395.22;1806987;78;21098;-66
2021/10/07 05:02:00;;;;;;;6.00;2.90;;;;;;;14.62;32.42;102394.88;1818658;78;21579;-66
2021/10/07 05:04:26;;;;;;;9.43;3.75;;;;;;;14.63;32.53;102392.61;1806781;78;20935;-67
2021/10/07 05:06:53;;;;;;;8.58;3.15;;;;;;;14.88;32.28;102397.95;1799062;78;20884;-67
2021/10/07 05:09:21;;;;;;;7.17;2.70;;;;;;;14.94;32.19;102395.52;1799238;78;20977;-76
2021/10/07 05:11:48;;;;;;;5.97;3.00;;;;;;;14.84;32.05;102394.31;1820172;78;21159;-66
2021/10/07 05:14:15;;;;;;;6.60;2.90;;;;;;;14.40;32.69;102395.42;1811986;78;20900;-67
2021/10/07 05:16:42;;;;;;;8.58;2.92;;;;;;;14.53;32.73;102397.97;1819606;78;20958;-68
2021/10/07 05:19:08;;;;;;;6.10;2.80;;;;;;;15.36;31.74;102387.23;1820991;78;20986;-69
2021/10/07 05:21:35;;;;;;;6.85;2.80;;;;;;;15.41;31.48;102387.06;1795294;78;20982;-68
2021/10/07 05:24:02;;;;;;;7.62;3.25;;;;;;;15.55;31.12;102385.61;1820405;78;21846;-67
2021/10/07 05:26:29;;;;;;;8.70;3.62;;;;;;;15.32;31.42;102389.36;1802151;78;21545;-65
2021/10/07 05:28:55;;;;;;;7.33;3.47;;;;;;;15.55;31.14;102396.94;1813076;78;21043;-61
2021/10/07 05:31:22;;;;;;;13.10;3.33;;;;;;;15.29;31.34;102398.38;1810058;78;20966;-65
2021/10/07 05:33:49;;;;;;;8.00;3.72;;;;;;;15.20;31.56;102395.42;1816389;78;20906;-63
2021/10/07 05:36:17;;;;;;;7.28;3.77;;;;;;;15.45;31.25;102402.84;1812625;78;21612;-65
2021/10/07 05:38:43;;;;;;;8.28;3.22;;;;;;;15.59;31.16;102401.38;1813840;78;20966;-65
2021/10/07 05:41:11;;;;;;;5.60;2.90;;;;;;;15.94;30.77;102406.00;1813841;78;20974;-66
2021/10/07 05:43:38;;;;;;;6.83;2.98;;;;;;;16.26;30.38;102409.09;1813873;78;20962;-65
2021/10/07 05:46:04;;;;;;;6.55;3.10;;;;;;;16.66;29.87;102395.47;1817758;78;21133;-66
2021/10/07 05:48:33;;;;;;;5.28;2.80;;;;;;;16.88;29.61;102389.48;1815315;78;21115;-66
2021/10/07 05:51:00;;;;;;;9.93;3.17;;;;;;;17.53;29.19;102403.24;1813815;78;20963;-62
2021/10/07 05:53:27;;;;;;;13.50;3.93;;;;;;;17.69;28.49;102391.23;1816387;78;21022;-74
2021/10/07 05:55:53;;;;;;;7.63;2.70;;;;;;;17.85;28.24;102386.37;1814655;78;21747;-65
2021/10/07 05:58:20;;;;;;;6.90;2.90;;;;;;;17.87;27.95;102393.59;1818149;78;21173;-69
2021/10/07 06:00:46;;;;;;;7.87;3.63;;;;;;;18.29;28.05;102398.27;1799605;78;21171;-67
2021/10/07 06:03:13;;;;;;;9.87;3.23;;;;;;;19.17;27.12;102393.41;1807436;78;21559;-67
2021/10/07 06:05:40;;;;;;;8.10;3.20;;;;;;;19.54;26.37;102390.68;1820349;78;21184;-70
2021/10/07 06:08:07;;;;;;;7.47;2.80;;;;;;;19.80;25.92;102390.11;1815110;78;22565;-77
2021/10/07 06:10:34;;;;;;;7.13;2.90;;;;;;;20.17;25.74;102398.22;1815174;78;21998;-66
2021/10/07 06:13:01;;;;;;;10.50;2.87;;;;;;;20.18;25.19;102400.66;1820597;78;21437;-65
2021/10/07 06:15:29;;;;;;;7.67;2.47;;;;;;;19.20;25.93;102398.30;1818876;78;21711;-76
2021/10/07 06:17:56;;;;;;;10.23;3.07;;;;;;;19.20;25.93;102398.30;1811323;78;21731;-73
2021/10/07 06:22:50;;;;;;;10.60;2.93;;;;;;;19.19;26.39;102412.53;1818959;78;21530;-70
2021/10/07 06:25:17;;;;;;;9.53;3.10;;;;;;;19.75;25.91;102403.92;1816684;78;21276;-69
2021/10/07 06:27:44;;;;;;;8.83;2.93;;;;;;;20.15;25.65;102397.09;1813830;78;21384;-70
2021/10/07 06:30:11;;;;;;;8.17;3.33;;;;;;;20.63;25.04;102397.66;1818577;78;22012;-72
2021/10/07 06:32:40;;;;;;;7.87;3.33;;;;;;;20.87;24.58;102415.72;1808991;78;22236;-66
2021/10/07 06:35:08;;;;;;;7.57;3.10;;;;;;;20.69;24.24;102399.54;1799868;78;21686;-67
2021/10/07 06:37:34;;;;;;;13.40;3.10;;;;;;;20.69;24.24;102399.54;1811975;78;21118;-67
2021/10/07 06:40:01;;;;;;;10.37;3.20;;;;;;;20.65;24.27;102405.74;1813388;78;21029;-67
2021/10/07 06:42:28;;;;;;;7.37;3.20;;;;;;;20.81;24.04;102397.13;1819059;78;21042;-73
2021/10/07 06:44:54;;;;;;;11.70;3.63;;;;;;;20.89;24.11;102395.11;1817825;78;20975;-68
2021/10/07 06:47:21;;;;;;;9.40;3.23;;;;;;;20.77;23.83;102397.22;1819350;78;20994;-70
2021/10/07 06:49:49;;;;;;;7.20;3.30;;;;;;;20.31;24.18;102395.15;1806961;78;22643;-68
2021/10/07 06:52:16;;;;;;;6.90;2.70;;;;;;;20.00;24.67;102401.69;1819432;78;21687;-69
2021/10/07 06:54:42;;;;;;;9.57;2.67;;;;;;;19.64;25.06;102399.16;1814568;78;22124;-67
2021/10/07 06:57:09;;;;;;;10.87;3.17;;;;;;;19.79;24.97;102393.27;1819241;78;22046;-78
2021/10/07 06:59:36;;;;;;;12.50;2.80;;;;;;;19.50;25.10;102400.01;1806209;78;22285;-68
2021/10/07 07:02:02;;;;;;;10.70;2.60;;;;;;;19.05;25.45;102405.45;1819253;78;22034;-68
2021/10/07 07:04:29;;;;;;;13.83;3.53;;;;;;;19.03;25.59;102404.84;1816920;78;21126;-68
2021/10/07 07:06:56;;;;;;;8.00;2.40;;;;;;;19.09;25.70;102408.55;1808956;78;21335;-76
2021/10/07 07:09:23;;;;;;;13.23;2.87;;;;;;;19.32;25.20;102402.61;1812996;78;21321;-75
2021/10/07 07:11:50;;;;;;;9.03;2.53;;;;;;;19.17;25.19;102414.56;1814550;78;21262;-68
2021/10/07 07:14:18;;;;;;;10.70;2.80;;;;;;;19.02;25.09;102403.72;1813441;78;22205;-68
2021/10/07 07:16:44;;;;;;;11.93;2.97;;;;;;;19.06;25.21;102418.20;1815082;78;21144;-70
2021/10/07 07:19:12;;;;;;;11.77;3.63;;;;;;;19.36;24.85;102395.12;1816131;78;21292;-77
2021/10/07 07:21:39;;;;;;;13.43;2.80;;;;;;;19.52;24.56;102396.17;1812121;78;21132;-68
2021/10/07 07:24:06;;;;;;;8.03;2.53;;;;;;;19.78;24.17;102389.00;1814537;78;21266;-68
2021/10/07 07:26:35;;;;;;;10.67;2.93;;;;;;;19.62;24.08;102391.90;1814745;78;21237;-68
2021/10/07 07:29:03;;;;;;;12.20;3.30;;;;;;;19.62;24.08;102391.90;1813798;78;21258;-77
2021/10/07 07:31:29;;;;;;;11.20;2.37;;;;;;;19.63;23.83;102397.02;1812775;78;21291;-66
2021/10/07 07:33:56;;;;;;;10.07;3.00;;;;;;;19.51;23.90;102389.73;1816760;78;21261;-71
2021/10/07 07:36:24;;;;;;;12.17;2.70;;;;;;;19.47;23.66;102389.30;1814518;78;21327;-67
2021/10/07 07:38:51;;;;;;;10.40;2.97;;;;;;;19.27;24.04;102391.76;1818084;78;21751;-69
2021/10/07 07:41:18;;;;;;;11.23;2.90;;;;;;;19.02;24.42;102386.53;1815106;78;21241;-78
2021/10/07 07:43:45;;;;;;;12.50;2.87;;;;;;;18.68;24.56;102391.40;1816022;78;21246;-66
2021/10/07 07:46:18;;;;;;;11.97;2.93;;;;;;;18.45;24.53;102382.27;1813887;78;20998;-64
2021/10/07 07:48:43;;;;;;;14.13;3.10;;;;;;;18.35;24.64;102390.95;1813794;78;21238;-71
2021/10/07 07:51:10;;;;;;;8.27;2.70;;;;;;;18.34;24.64;102383.23;1765633;78;21235;-68
2021/10/07 07:53:37;;;;;;;11.70;2.70;;;;;;;18.18;24.51;102393.45;1751529;80;21397;-68
2021/10/07 07:56:04;;;;;;;8.53;2.30;;;;;;;17.96;24.78;102384.11;1748905;80;22451;-69
2021/10/07 07:58:31;;;;;;;9.30;2.67;;;;;;;18.08;24.69;102384.99;1780504;79;21287;-67
2021/10/07 08:00:58;;;;;;;6.30;1.87;;;;;;;17.99;25.16;102378.95;1779045;80;21230;-68
2021/10/07 08:03:25;;;;;;;9.50;2.53;;;;;;;18.11;25.24;102376.22;1731651;80;21787;-70
2021/10/07 08:05:53;;;;;;;8.87;2.63;;;;;;;18.33;25.25;102379.75;1741403;82;21673;-72
2021/10/07 08:08:20;;;;;;;8.20;3.20;;;;;;;18.82;24.82;102374.39;1747639;80;22053;-66
2021/10/07 08:10:48;;;;;;;11.63;3.13;;;;;;;19.14;24.78;102366.02;1744763;81;22301;-81
2021/10/07 08:13:16;;;;;;;8.53;2.07;;;;;;;19.65;24.35;102362.42;1712886;82;21138;-77
2021/10/07 08:15:43;;;;;;;11.80;2.47;;;;;;;19.81;23.65;102347.59;1714151;81;21300;-68
2021/10/07 08:18:11;;;;;;;7.30;2.43;;;;;;;20.08;23.29;102353.06;1722415;82;21700;-69
2021/10/07 08:20:39;;;;;;;12.17;2.57;;;;;;;19.90;23.10;102350.91;1724179;82;21235;-71
2021/10/07 08:23:06;;;;;;;14.27;1.70;;;;;;;20.06;22.97;102346.62;1711389;83;21748;-74
2021/10/07 08:25:33;;;;;;;13.73;2.80;;;;;;;20.14;22.55;102352.26;1716532;81;21487;-67
2021/10/07 08:28:00;;;;;;;7.97;2.60;;;;;;;19.99;22.63;102343.11;1744683;81;21457;-70
2021/10/07 08:30:26;;;;;;;10.17;2.50;;;;;;;20.09;22.75;102348.88;1748271;81;21863;-66
2021/10/07 08:32:53;;;;;;;9.17;3.40;;;;;;;20.45;22.61;102338.55;1719037;81;21310;-74
2021/10/07 08:35:20;;;;;;;10.00;2.03;;;;;;;20.45;22.61;102338.55;1716586;82;21860;-78
2021/10/07 08:37:47;;;;;;;9.90;2.43;;;;;;;20.76;22.04;102339.91;1742329;81;21313;-71
2021/10/07 08:40:15;;;;;;;7.90;2.00;;;;;;;21.09;21.66;102333.35;1735926;81;21212;-69
2021/10/07 08:42:44;;;;;;;14.77;2.33;;;;;;;21.09;21.66;102333.35;1712881;81;21545;-70
2021/10/07 08:45:11;;;;;;;11.30;2.80;;;;;;;21.32;21.26;102314.39;1738374;81;21832;-79
2021/10/07 08:47:40;;;;;;;7.40;1.97;;;;;;;21.66;21.10;102309.91;1736613;81;21715;-68
2021/10/07 08:50:09;;;;;;;9.37;2.60;;;;;;;22.02;20.49;102322.70;1736392;81;22223;-67
2021/10/07 08:52:36;;;;;;;9.50;2.07;;;;;;;22.15;19.95;102313.39;1741770;82;22143;-69
2021/10/07 08:55:05;;;;;;;7.47;2.27;;;;;;;22.15;19.95;102313.39;1748385;81;21643;-78
2021/10/07 08:57:31;;;;;;;7.37;1.93;;;;;;;21.92;20.21;102313.84;1713631;81;21676;-68
2021/10/07 08:59:59;;;;;;;6.37;2.40;;;;;;;21.90;20.13;102304.47;1717332;82;20983;-67
2021/10/07 09:02:30;;;;;;;7.17;1.60;;;;;;;21.90;20.13;102304.47;1751718;79;21039;-69
2021/10/07 09:05:17;;;;;;;4.95;1.62;;;;;;;21.86;20.03;102302.23;1760633;80;21123;-75
2021/10/07 09:08:08;;;;;;;5.90;2.10;;;;;;;22.37;19.80;102311.26;1748075;80;21486;-67
2021/10/07 09:10:49;;;;;;;5.87;2.08;;;;;;;22.54;20.00;102300.94;1779297;80;21666;-73
2021/10/07 09:13:22;;;;;;;5.28;2.40;;;;;;;22.79;19.61;102307.14;1780711;80;20979;-68
2021/10/07 09:15:54;;;;;;;6.77;2.20;;;;;;;22.61;19.49;102298.25;1775049;80;20923;-66
2021/10/07 09:18:21;;;;;;;8.45;1.98;;;;;;;23.29;19.01;102273.94;1767406;80;21204;-75
2021/10/07 09:20:50;;;;;;;6.60;2.67;;;;;;;23.55;18.66;102288.04;1778990;80;20996;-67
2021/10/07 09:23:28;;;;;;;6.67;2.00;;;;;;;22.17;19.62;102294.60;1779718;80;22161;-67
2021/10/07 09:26:10;;;;;;;3.50;1.50;;;;;;;21.68;19.97;102281.33;1778075;80;21589;-76
2021/10/07 09:28:58;;;;;;;5.30;1.63;;;;;;;21.35;20.27;102304.22;1768530;80;21720;-67
2021/10/07 09:31:30;;;;;;;4.83;1.60;;;;;;;21.92;19.93;102300.56;1767325;79;21724;-68
2021/10/07 09:34:04;;;;;;;9.43;2.77;;;;;;;22.10;19.49;102288.76;1772728;79;22150;-67
2021/10/07 09:36:31;;;;;;;7.30;1.77;;;;;;;22.04;19.48;102296.74;1776340;80;21751;-67
2021/10/07 09:38:58;;;;;;;8.37;1.87;;;;;;;21.88;19.42;102296.70;1778055;80;21596;-74
2021/10/07 09:41:29;;;;;;;7.97;1.90;;;;;;;21.67;19.55;102303.08;1762055;80;21733;-74
2021/10/07 09:44:02;;;;;;;4.83;1.67;;;;;;;21.61;19.40;102296.75;1768011;80;21593;-70
2021/10/07 09:46:49;;;;;;;6.87;1.73;;;;;;;22.17;19.62;102299.91;1759682;80;21625;-69
2021/10/07 09:49:20;;;;;;;6.10;1.50;;;;;;;22.17;19.62;102299.91;1766574;80;21538;-69
2021/10/07 09:51:53;;;;;;;4.20;1.50;;;;;;;22.16;18.93;102291.13;1781059;80;21669;-67
2021/10/07 09:54:30;;;;;;;3.37;1.77;;;;;;;22.12;19.55;102288.53;1778877;80;21779;-68
2021/10/07 09:57:02;;;;;;;3.30;1.33;;;;;;;22.19;19.30;102296.52;1779905;80;21846;-68
2021/10/07 09:59:32;;;;;;;6.20;1.80;;;;;;;22.24;19.30;102280.78;1780103;80;22183;-67
2021/10/07 10:01:58;;;;;;;5.17;1.70;;;;;;;22.48;19.23;102270.73;1774693;80;21626;-68
2021/10/07 10:04:26;;;;;;;3.93;1.33;;;;;;;22.89;19.18;102272.11;1779017;80;21003;-72
2021/10/07 10:06:53;;;;;;;5.53;1.37;;;;;;;23.33;18.72;102271.66;1778901;80;21586;-67
2021/10/07 10:09:25;;;;;;;5.37;1.43;;;;;;;23.52;17.70;102261.85;1753726;80;21110;-68
2021/10/07 10:11:52;;;;;;;4.35;1.20;;;;;;;23.52;17.70;102261.85;1775311;80;27027;-67
2021/10/07 10:14:22;;;;;;;3.83;0.97;;;;;;;23.50;17.54;102277.25;1757988;80;21012;-72
2021/10/07 10:16:51;;;;;;;4.70;1.50;;;;;;;23.38;17.31;102262.52;1769045;80;21786;-67
2021/10/07 10:19:18;;;;;;;5.13;1.37;;;;;;;23.44;17.78;102249.64;1768745;80;21354;-64
2021/10/07 10:21:46;;;;;;;5.40;1.33;;;;;;;23.67;17.54;102246.87;1719962;82;21109;-67
2021/10/07 10:24:13;;;;;;;6.47;1.30;;;;;;;23.60;17.44;102250.09;1747313;80;20949;-75
2021/10/07 10:26:40;;;;;;;5.60;1.40;;;;;;;23.54;17.61;102251.29;1766148;80;21066;-62
2021/10/07 10:29:21;;;;;;;5.03;1.40;;;;;;;23.52;17.49;102220.09;1773375;80;21516;-65
2021/10/07 10:31:52;;;;;;;5.42;1.35;;;;;;;23.29;17.54;102229.22;1770128;80;21450;-65
2021/10/07 10:34:22;;;;;;;4.60;1.63;;;;;;;23.42;17.69;102238.42;1714995;82;22434;-66
2021/10/07 10:37:00;;;;;;;6.80;1.43;;;;;;;23.33;17.24;102247.70;1735870;80;20985;-64
2021/10/07 10:39:34;;;;;;;4.80;1.10;;;;;;;23.16;17.06;102232.02;1730760;80;20905;-66
2021/10/07 10:42:26;;;;;;;5.37;1.70;;;;;;;22.94;17.19;102212.45;1750601;80;21006;-64
2021/10/07 10:44:55;;;;;;;5.23;2.27;;;;;;;22.56;17.61;102229.80;1713560;82;21091;-77
2021/10/07 10:47:29;;;;;;;5.63;1.70;;;;;;;22.56;17.61;102229.80;1718012;81;21159;-70
2021/10/07 10:50:03;;;;;;;5.47;1.33;;;;;;;22.75;17.89;102230.69;1746490;80;21055;-65
2021/10/07 10:52:42;;;;;;;7.40;1.40;;;;;;;22.83;17.60;102215.79;1712608;82;21099;-66
2021/10/07 10:55:25;;;;;;;8.03;1.00;;;;;;;22.69;17.77;102260.30;1699849;83;21574;-68
2021/10/07 10:58:01;;;;;;;7.17;1.13;;;;;;;22.52;17.48;102247.20;1737383;81;20973;-66
2021/10/07 11:00:34;;;;;;;5.23;1.13;;;;;;;22.40;17.32;102233.78;1714219;82;21683;-79
2021/10/07 11:03:15;;;;;;;3.53;1.10;;;;;;;22.18;17.48;102253.72;1726420;80;20990;-67
2021/10/07 11:06:03;;;;;;;3.60;0.97;;;;;;;22.07;17.83;102222.77;1747661;81;21042;-67
2021/10/07 11:08:47;;;;;;;4.23;1.30;;;;;;;21.94;17.79;102226.02;1746404;80;21288;-65
2021/10/07 11:11:24;;;;;;;7.65;1.22;;;;;;;21.96;17.88;102223.95;1747705;80;21544;-66
2021/10/07 11:13:51;;;;;;;3.97;1.23;;;;;;;21.83;18.21;102220.84;1740211;80;21122;-79
2021/10/07 11:16:19;;;;;;;4.00;1.00;;;;;;;21.97;18.25;102218.45;1747601;80;21789;-65
2021/10/07 11:18:47;;;;;;;5.57;1.37;;;;;;;22.18;18.11;102216.02;1746431;80;21817;-64
2021/10/07 11:21:19;;;;;;;3.30;0.80;;;;;;;22.33;18.28;102216.55;1734266;80;21688;-65
2021/10/07 11:23:51;;;;;;;3.07;1.07;;;;;;;22.33;18.28;102216.55;1751256;80;20931;-68
2021/10/07 11:26:21;;;;;;;2.50;1.10;;;;;;;22.18;18.41;102204.06;1735849;81;22444;-64
2021/10/07 11:28:49;;;;;;;2.60;1.07;;;;;;;22.18;18.41;102204.06;1745541;80;21074;-66
2021/10/07 11:31:21;;;;;;;4.03;1.37;;;;;;;22.41;18.16;102209.34;1748613;80;20935;-71
2021/10/07 11:33:57;;;;;;;3.37;1.27;;;;;;;22.25;18.29;102201.38;1745239;80;21041;-67
2021/10/07 11:36:22;;;;;;;2.10;1.07;;;;;;;22.03;18.31;102194.20;1746734;80;21097;-66
2021/10/07 11:38:50;;;;;;;3.40;1.20;;;;;;;22.03;18.31;102194.20;1745302;81;21269;-67